Weather observations for the past three days for
Carlsbad, McClellan-Palomar Airport
Imperial (Metric)
Date Time (pdt) Wind (mph) Vis. (mi.) Weather Sky Cond. Temperature (ºF) Relative Humidity Wind Chill (°F) Heat Index (°F) Pressure Precipitation (in)
Air Dwpt 6 hour altimeter (in) sea level (mb) 1 hr 3 hr 6 hr
Max. Min.
08 08:53 S 3 10.00 Overcast OVC011 62.1 55.9 80% 30.01 1016.2
08 07:53 Calm 10.00 Overcast OVC010 61 55.9 84% 30.01 1016.1
08 06:53 Calm 6.00 Fog/Mist OVC010 60.1 55.9 86% 30 1015.8
08 05:53 S 5 10.00 Overcast OVC009 61 55.9 84% 29.99 1015.4
08 04:53 Calm 10.00 Overcast OVC009 60.1 55.9 62.1 60.1 86% 29.99 1015.3
08 03:53 SE 6 10.00 Overcast OVC009 61 57 87% 29.98 1015.2
08 02:53 SE 3 10.00 Overcast OVC009 61 57 87% 29.99 1015.4
08 01:53 E 3 10.00 Overcast OVC009 61 57 87% 29.99 1015.5
08 00:53 Calm 10.00 Overcast OVC010 61 57 87% 30.01 1015.9
07 23:53 S 3 10.00 Overcast OVC010 62.1 57 84% 30.01 1016.1
07 22:53 S 3 10.00 Overcast OVC010 61 57 64 61 87% 30.02 1016.3
07 21:53 S 5 10.00 Overcast OVC010 62.1 57 84% 30.01 1016.2
07 20:53 W 5 10.00 Overcast OVC010 62.1 55.9 80% 29.99 1015.5
07 19:53 W 6 10.00 Overcast OVC010 62.1 57 84% 29.97 1014.7
07 18:53 Calm 10.00 Mostly Cloudy BKN012 62.1 55.9 80% 29.96 1014.3
07 17:53 SW 6 10.00 Partly Cloudy SCT013 63 55.9 78% 29.96 1014.3
07 16:53 SW 8 10.00 Mostly Cloudy BKN014 64 55.9 66 63 75% 29.96 1014.4
07 15:53 W 9 10.00 Overcast OVC014 64 55.9 75% 29.96 1014.3
07 14:53 W 9 10.00 Mostly Cloudy BKN015 64.9 55.9 73% 29.98 1014.9
07 13:53 W 10 10.00 A Few Clouds FEW015 64.9 55.9 73% 29.99 1015.2
07 12:53 SW 9 10.00 Fair CLR 66 55.9 70% 29.99 1015.4
07 11:53 W 8 10.00 Fair CLR 64.9 55.9 73% 30 1015.8
07 10:53 W 7 10.00 Fair CLR 64.9 55 64.9 55.9 70% 30.01 1016.1
07 09:53 SW 7 10.00 Fair CLR 64 55.9 75% 30.02 1016.3
07 08:53 SW 5 10.00 Overcast OVC012 61 55 81% 30.03 1016.6
07 07:53 Calm 10.00 Overcast OVC010 60.1 55.9 86% 30.02 1016.5
07 06:53 SE 5 10.00 Mostly Cloudy BKN008 57.9 55 90% 30.01 1016.0
07 05:53 SE 3 10.00 Fair CLR 57 54 90% 30 1015.6
07 04:53 E 3 10.00 Fair CLR 57 54 61 57 90% 29.99 1015.5
07 03:53 SE 3 10.00 Fair CLR 57.9 55 90% 30 1015.7
07 02:53 SE 3 10.00 Fair CLR 59 55 87% 30.01 1016.0
07 01:53 SE 3 10.00 Overcast OVC010 60.1 55 84% 30.02 1016.4
07 00:53 SE 6 10.00 Mostly Cloudy BKN011 60.1 55 84% 30.03 1016.8
06 23:53 SE 5 10.00 A Few Clouds FEW012 60.1 55 84% 30.04 1017.1
06 22:53 Calm 10.00 Fair CLR 61 55 66.9 61 81% 30.04 1017.2
06 21:53 Calm 10.00 Fair CLR 61 55 81% 30.04 1017.0
06 20:53 NW 3 10.00 Fair CLR 62.1 55.9 80% 30.04 1016.9
06 19:53 W 3 10.00 Fair CLR 62.1 57 84% 30.02 1016.4
06 18:53 W 8 10.00 Fair CLR 64 55 73% 30.01 1016.0
06 17:53 W 8 10.00 Fair CLR 66 53.1 63% 30 1015.8
06 16:53 Vrbl 7 10.00 Fair CLR 66 55 66.9 64 68% 29.99 1015.5
06 15:53 Vrbl 7 G 16 10.00 Fair CLR 66 55 68% 30 1015.8
06 14:53 W 12 G 21 10.00 Fair CLR 64.9 54 68% 30.02 1016.3
06 13:53 W 10 10.00 Fair CLR 66 54 65% 30.03 1016.8
06 12:53 W 9 G 18 10.00 Fair CLR 66 52 61% 30.04 1017.1
06 11:53 W 9 10.00 Fair CLR 64.9 51.1 61% 30.05 1017.5
06 10:53 W 7 10.00 Fair CLR 64 51.1 64.9 54 63% 30.07 1018.0
06 09:53 SW 8 10.00 A Few Clouds FEW026 63 52 68% 30.07 1018.2
06 08:53 Calm 10.00 A Few Clouds FEW022 61 51.1 70% 30.07 1018.1
06 07:53 Calm 10.00 Fair CLR 59 50 72% 30.07 1018.2
06 06:53 E 3 10.00 Fair CLR 55.9 48.9 77% 30.06 1017.8
06 05:53 E 3 10.00 Fair CLR 54 48.9 83% 30.05 1017.3
06 04:53 Calm 10.00 Fair CLR 55 48.9 60.1 55 80% 30.04 1017.1
06 03:53 Calm 10.00 Fair CLR 55 50 83% 30.04 1017.0
06 02:53 NE 3 10.00 Fair CLR 55.9 50 81% 30.03 1016.9
06 01:53 Calm 10.00 Fair CLR 57 50 78% 30.04 1017.1
06 00:53 NE 3 10.00 A Few Clouds FEW022 57.9 50 75% 30.06 1017.6
05 23:53 Calm 10.00 A Few Clouds FEW024 57.9 51.1 78% 30.05 1017.5
05 22:53 Calm 10.00 Fair CLR 60.1 51.1 64 60.1 72% 30.05 1017.3
05 21:53 W 3 10.00 A Few Clouds FEW031 61 50 67% 30.03 1016.9
05 20:53 W 6 10.00 Partly Cloudy FEW023 SCT030 61 51.1 70% 30.02 1016.2
05 19:53 W 7 10.00 A Few Clouds FEW023 FEW032 61 50 67% 29.99 1015.4
05 18:53 W 7 10.00 Mostly Cloudy SCT027 BKN035 62.1 48.9 62% 29.97 1014.8
05 17:53 W 10 10.00 A Few Clouds FEW029 63 48.9 60% 29.97 1014.6
05 16:53 W 12 G 23 10.00 A Few Clouds FEW028 63 48.9 64.9 62.1 60% 29.96 1014.4
05 15:53 W 12 G 23 10.00 Fair CLR 64 48 56% 29.96 1014.5
05 14:53 W 14 G 22 10.00 Fair CLR 64 46.9 54% 29.98 1014.9
05 13:53 SW 16 10.00 Fair CLR 64 48 56% 29.99 1015.3
05 12:53 SW 14 10.00 Fair CLR 64 50 60% 29.99 1015.3
05 11:53 W 12 G 22 10.00 Fair CLR 63 45 52% 30 1015.6
05 10:53 W 12 G 17 10.00 Fair CLR 62.1 48 62.1 55.9 60% 29.99 1015.4 0.12
05 09:53 W 8 10.00 Overcast FEW026 FEW032 OVC060 61 50 67% 29.97 1014.8
Date Time (pdt) Wind (mph) Vis. (mi.) Weather Sky Cond. Air Dwpt Max. Min. Relative Humidity Wind Chill (°F) Heat Index (°F) altimeter (in) sea level (mb) 1 hr 3 hr 6 hr
6 hour
Temperature (ºF) Pressure Precipitation (in)